Time;durP1;ratioP1;P1;durP2;ratioP2;P2;SDS_P1;SDS_P2;PMS_P1;PMS_P2;Temp;Humidity;BMP_temperature;BMP_pressure;BME280_temperature;BME280_humidity;BME280_pressure;Samples;Min_cycle;Max_cycle;Signal;HPM_P1;HPM_P2
2023/05/09 00:02:22;;;;;;;1.50;1.00;;;16.80;98.20;;;;;;4955937;28;20868;-83
2023/05/09 00:04:49;;;;;;;1.47;1.00;;;16.90;98.20;;;;;;4964180;28;20466;-84
2023/05/09 00:07:17;;;;;;;1.50;0.90;;;16.80;98.20;;;;;;4955035;28;20486;-81
2023/05/09 00:09:44;;;;;;;1.50;0.90;;;16.80;98.20;;;;;;4967064;28;20458;-79
2023/05/09 00:12:11;;;;;;;1.50;0.90;;;16.80;98.20;;;;;;4958279;28;20500;-79
2023/05/09 00:14:39;;;;;;;1.50;0.90;;;16.80;98.20;;;;;;4966131;28;20498;-79
2023/05/09 00:17:06;;;;;;;1.50;1.00;;;16.80;98.20;;;;;;4954409;28;20470;-80
2023/05/09 00:19:33;;;;;;;1.50;1.00;;;16.80;98.20;;;;;;4962810;28;20472;-79
2023/05/09 00:22:00;;;;;;;1.50;1.00;;;16.70;98.20;;;;;;4952692;28;20494;-79
2023/05/09 00:24:28;;;;;;;1.50;1.00;;;16.80;98.20;;;;;;4961456;28;20470;-79
2023/05/09 00:26:55;;;;;;;1.50;1.00;;;16.80;98.20;;;;;;4953767;28;20488;-80
2023/05/09 00:29:22;;;;;;;1.50;1.00;;;16.80;98.20;;;;;;4983342;28;20464;-79
2023/05/09 00:31:48;;;;;;;1.50;1.00;;;16.80;98.20;;;;;;4956507;28;20995;-80
2023/05/09 00:34:15;;;;;;;1.50;1.00;;;16.70;98.20;;;;;;4963613;28;20470;-81
2023/05/09 00:36:42;;;;;;;1.50;0.90;;;16.70;98.20;;;;;;4954152;28;20489;-79
2023/05/09 00:39:09;;;;;;;1.50;1.00;;;16.70;98.20;;;;;;4960718;28;20466;-78
2023/05/09 00:41:37;;;;;;;1.50;1.00;;;16.60;98.20;;;;;;4958335;28;21068;-79
2023/05/09 00:44:04;;;;;;;1.50;1.10;;;16.70;98.20;;;;;;4968384;28;20955;-77
2023/05/09 00:46:31;;;;;;;1.50;1.00;;;16.60;98.20;;;;;;4957085;28;20478;-80
2023/05/09 00:48:58;;;;;;;1.50;0.90;;;16.60;98.20;;;;;;4965941;28;20476;-80
2023/05/09 00:51:27;;;;;;;1.50;1.00;;;16.70;98.20;;;;;;4951222;28;20737;-80
2023/05/09 00:53:54;;;;;;;1.50;1.00;;;16.70;98.20;;;;;;4964950;28;20463;-80
2023/05/09 00:56:21;;;;;;;1.50;1.07;;;16.70;98.20;;;;;;4955413;28;20490;-79
2023/05/09 00:58:49;;;;;;;1.50;1.00;;;16.70;98.20;;;;;;4965250;28;20544;-80
2023/05/09 01:01:16;;;;;;;1.50;1.10;;;16.70;98.20;;;;;;4953827;28;20497;-79
2023/05/09 01:03:43;;;;;;;1.50;1.00;;;16.70;98.20;;;;;;4964466;28;20458;-80
2023/05/09 01:06:17;;;;;;;1.50;1.00;;;16.70;98.20;;;;;;4953979;28;20490;-79
2023/05/09 01:08:51;;;;;;;1.50;0.90;;;16.70;98.20;;;;;;4964605;28;20473;-79
2023/05/09 01:11:27;;;;;;;1.50;1.00;;;16.70;98.20;;;;;;4956213;28;20486;-81
2023/05/09 01:14:06;;;;;;;1.50;1.00;;;16.70;98.20;;;;;;4964106;28;20499;-81
2023/05/09 01:16:41;;;;;;;1.50;1.00;;;16.70;98.20;;;;;;4952892;28;20499;-81
2023/05/09 01:19:27;;;;;;;1.50;1.00;;;16.70;98.20;;;;;;4958931;28;20466;-83
2023/05/09 01:21:56;;;;;;;1.50;1.00;;;16.70;98.20;;;;;;4945168;28;21132;-81
2023/05/09 01:24:44;;;;;;;1.47;1.00;;;16.70;98.20;;;;;;4959724;28;20569;-80
2023/05/09 01:27:27;;;;;;;1.50;0.90;;;16.70;98.20;;;;;;4951275;28;20991;-79
2023/05/09 01:29:57;;;;;;;1.50;1.00;;;16.70;98.20;;;;;;4961222;28;20477;-80
2023/05/09 01:32:26;;;;;;;1.50;1.00;;;16.70;98.20;;;;;;4955482;28;20846;-80
2023/05/09 01:34:58;;;;;;;1.50;1.00;;;16.80;98.20;;;;;;4960639;28;20549;-79
2023/05/09 01:37:30;;;;;;;1.47;1.03;;;16.80;98.20;;;;;;4944362;28;20501;-79
2023/05/09 01:40:00;;;;;;;1.50;0.90;;;16.80;98.20;;;;;;4964257;28;20469;-80
2023/05/09 01:42:33;;;;;;;1.50;1.10;;;16.80;98.20;;;;;;5008693;28;20485;-79
2023/05/09 01:45:03;;;;;;;1.50;0.90;;;16.80;98.20;;;;;;4970142;28;20461;-80
2023/05/09 01:47:30;;;;;;;1.50;1.00;;;16.80;98.20;;;;;;5010507;28;20482;-79
2023/05/09 01:49:58;;;;;;;1.80;1.70;;;16.80;98.20;;;;;;4970627;28;20845;-79
2023/05/09 01:52:26;;;;;;;1.50;1.00;;;16.80;98.20;;;;;;5020586;28;20478;-80
2023/05/09 01:54:54;;;;;;;1.43;0.90;;;16.80;98.20;;;;;;4986789;28;20466;-80
2023/05/09 01:57:22;;;;;;;1.50;0.93;;;16.80;98.20;;;;;;5006515;28;20486;-79
2023/05/09 01:59:50;;;;;;;1.50;1.00;;;16.80;98.20;;;;;;4976686;28;21009;-79
2023/05/09 02:02:19;;;;;;;1.47;0.90;;;16.80;98.20;;;;;;5016453;28;20536;-79
2023/05/09 02:04:47;;;;;;;1.50;1.00;;;16.80;98.20;;;;;;4988214;28;20458;-79
2023/05/09 02:07:15;;;;;;;1.50;1.00;;;16.90;98.20;;;;;;4999883;28;20486;-79
2023/05/09 02:09:42;;;;;;;1.50;1.00;;;16.90;98.20;;;;;;4993999;28;20478;-81
2023/05/09 02:12:08;;;;;;;1.50;1.00;;;16.90;98.20;;;;;;5005042;28;20485;-83
2023/05/09 02:14:35;;;;;;;1.50;1.00;;;16.90;98.20;;;;;;4990514;28;20497;-79
2023/05/09 02:17:05;;;;;;;1.50;1.00;;;16.90;98.20;;;;;;5011872;28;20482;-79
2023/05/09 02:19:35;;;;;;;1.50;1.00;;;16.90;98.20;;;;;;4999594;28;20458;-78
2023/05/09 02:22:03;;;;;;;1.43;0.90;;;16.90;98.20;;;;;;5009719;28;20478;-79
2023/05/09 02:24:32;;;;;;;1.50;1.00;;;16.90;98.20;;;;;;5005659;28;20454;-80
2023/05/09 02:27:01;;;;;;;1.50;1.00;;;16.80;98.20;;;;;;5012176;28;20485;-80
2023/05/09 02:29:39;;;;;;;2.67;1.10;;;16.80;98.20;;;;;;5008037;28;20963;-78
2023/05/09 02:32:08;;;;;;;1.50;1.00;;;16.70;98.20;;;;;;5009457;28;20514;-79
2023/05/09 02:34:37;;;;;;;1.50;1.00;;;16.70;98.20;;;;;;4986429;28;20481;-80
2023/05/09 02:37:05;;;;;;;1.50;1.00;;;16.80;98.20;;;;;;4998832;28;20869;-79
2023/05/09 02:39:32;;;;;;;1.50;1.00;;;16.80;98.20;;;;;;4997086;28;20850;-80
2023/05/09 02:42:05;;;;;;;1.50;1.00;;;16.80;98.20;;;;;;4991744;28;20502;-80
2023/05/09 02:44:32;;;;;;;1.50;0.90;;;16.80;98.20;;;;;;4964174;28;20460;-80
2023/05/09 02:46:59;;;;;;;1.50;1.00;;;16.80;98.20;;;;;;4994905;28;20842;-81
2023/05/09 02:49:26;;;;;;;1.50;1.00;;;16.80;98.20;;;;;;4990222;28;20469;-80
2023/05/09 02:51:54;;;;;;;1.47;0.90;;;16.80;98.20;;;;;;4959910;28;20495;-80
2023/05/09 02:54:21;;;;;;;1.47;0.90;;;16.90;98.20;;;;;;4972243;28;20580;-80
2023/05/09 02:56:48;;;;;;;1.47;1.00;;;16.80;98.20;;;;;;4955662;28;20580;-80
2023/05/09 02:59:16;;;;;;;1.47;1.00;;;16.80;98.20;;;;;;4963388;28;20843;-80
2023/05/09 03:01:43;;;;;;;1.50;0.97;;;16.80;98.20;;;;;;5009649;28;20494;-80
2023/05/09 03:04:10;;;;;;;1.47;0.97;;;16.80;98.20;;;;;;5010164;28;20955;-80
2023/05/09 03:06:37;;;;;;;1.50;1.10;;;16.80;98.20;;;;;;4981786;28;20565;-80
2023/05/09 03:09:05;;;;;;;1.43;0.90;;;16.80;98.20;;;;;;4998489;28;20473;-80
2023/05/09 03:11:32;;;;;;;1.50;1.00;;;16.70;98.20;;;;;;4999523;28;20491;-80
2023/05/09 03:13:59;;;;;;;1.50;0.90;;;16.70;98.20;;;;;;5005180;28;20497;-80
2023/05/09 03:16:26;;;;;;;1.50;1.00;;;16.70;98.20;;;;;;4974182;28;20493;-80
2023/05/09 03:18:53;;;;;;;1.50;1.00;;;16.70;98.20;;;;;;5015703;28;20466;-80
2023/05/09 03:21:20;;;;;;;1.47;1.07;;;16.70;98.20;;;;;;4983434;28;20532;-81
2023/05/09 03:23:47;;;;;;;1.50;1.00;;;16.70;98.20;;;;;;5023701;28;20516;-80
2023/05/09 03:26:15;;;;;;;1.40;0.90;;;16.70;98.20;;;;;;4969492;28;21096;-80
2023/05/09 03:28:42;;;;;;;1.50;0.93;;;16.70;98.20;;;;;;5026152;28;20943;-80
2023/05/09 03:31:08;;;;;;;1.50;1.10;;;16.70;98.20;;;;;;4988284;28;21032;-79
2023/05/09 03:33:35;;;;;;;1.50;1.13;;;16.70;98.20;;;;;;5018177;28;20497;-80
2023/05/09 03:36:02;;;;;;;1.47;0.90;;;16.70;98.20;;;;;;4961685;28;20509;-79
2023/05/09 03:38:29;;;;;;;1.50;1.00;;;16.70;98.20;;;;;;5019710;28;20479;-79
2023/05/09 03:40:56;;;;;;;1.50;1.00;;;16.70;98.20;;;;;;4961800;28;20469;-80
2023/05/09 03:43:24;;;;;;;1.50;1.10;;;16.60;98.20;;;;;;5023777;28;20497;-80
2023/05/09 03:45:51;;;;;;;1.50;1.00;;;16.70;98.20;;;;;;4951032;28;20462;-80
2023/05/09 03:48:18;;;;;;;1.50;1.00;;;16.70;98.20;;;;;;4960187;28;20543;-80
2023/05/09 03:50:45;;;;;;;1.47;0.93;;;16.60;98.20;;;;;;4961501;28;20477;-79
2023/05/09 03:53:11;;;;;;;1.47;0.90;;;16.60;98.20;;;;;;4936354;28;20505;-81
2023/05/09 03:55:38;;;;;;;1.50;0.90;;;16.60;98.20;;;;;;5003245;22;20502;-79
2023/05/09 03:58:05;;;;;;;1.50;1.00;;;16.60;98.20;;;;;;4990112;28;20488;-80
2023/05/09 04:00:34;;;;;;;1.50;1.00;;;16.60;98.20;;;;;;5001470;28;20462;-79
2023/05/09 04:03:01;;;;;;;1.50;0.90;;;16.60;98.20;;;;;;4991528;28;21015;-80
2023/05/09 04:05:28;;;;;;;1.50;1.00;;;16.50;98.20;;;;;;4997733;28;20476;-80
2023/05/09 04:07:55;;;;;;;1.50;1.00;;;16.50;98.20;;;;;;4984434;28;20850;-79
2023/05/09 04:10:22;;;;;;;1.50;1.00;;;16.50;98.20;;;;;;4995886;28;20468;-80
2023/05/09 04:12:48;;;;;;;1.50;1.00;;;16.50;98.20;;;;;;4989830;28;20647;-80
2023/05/09 04:15:27;;;;;;;1.47;0.90;;;16.50;98.20;;;;;;5002762;28;20480;-81
2023/05/09 04:17:55;;;;;;;1.50;1.00;;;16.50;98.20;;;;;;4988933;28;20476;-81
2023/05/09 04:20:22;;;;;;;1.50;1.00;;;16.50;98.20;;;;;;5000810;28;20858;-80
2023/05/09 04:22:49;;;;;;;1.50;0.90;;;16.50;98.20;;;;;;4990171;28;20517;-81
2023/05/09 04:25:16;;;;;;;1.50;1.17;;;16.50;98.20;;;;;;4998846;28;20480;-80
2023/05/09 04:27:45;;;;;;;1.50;1.00;;;16.50;98.20;;;;;;4972049;28;20865;-81
2023/05/09 04:31:00;;;;;;;1.50;1.00;;;16.40;98.20;;;;;;5004420;28;20448;-80
2023/05/09 04:33:38;;;;;;;1.50;1.00;;;16.40;98.20;;;;;;4962996;28;20485;-81
2023/05/09 04:36:14;;;;;;;1.50;0.90;;;16.30;98.20;;;;;;4985233;28;22871;-81
2023/05/09 04:41:38;;;;;;;1.50;1.00;;;16.20;98.20;;;;;;4990742;28;20481;-81
2023/05/09 04:44:09;;;;;;;1.50;1.00;;;16.20;98.20;;;;;;4986649;28;20480;-81
2023/05/09 04:46:39;;;;;;;1.50;1.00;;;16.20;98.20;;;;;;4980154;28;20474;-81
2023/05/09 04:49:08;;;;;;;1.50;0.90;;;16.20;98.20;;;;;;4989235;28;20546;-80
2023/05/09 04:51:57;;;;;;;1.50;1.00;;;16.20;98.20;;;;;;4980657;28;20548;-80
2023/05/09 04:58:16;;;;;;;1.50;1.00;;;16.20;98.20;;;;;;4938006;28;20466;-81
2023/05/09 05:00:49;;;;;;;1.50;1.00;;;16.20;98.20;;;;;;4917927;28;20467;-80
2023/05/09 05:03:16;;;;;;;1.50;1.10;;;16.20;98.20;;;;;;4954478;28;20465;-80
2023/05/09 05:05:55;;;;;;;1.50;1.00;;;16.20;98.20;;;;;;4989372;28;20489;-80
2023/05/09 05:08:22;;;;;;;1.50;1.00;;;16.20;98.20;;;;;;4961164;28;20795;-80
2023/05/09 05:10:53;;;;;;;1.50;1.00;;;16.20;98.20;;;;;;4990283;28;20468;-81
2023/05/09 05:13:31;;;;;;;1.50;1.00;;;16.30;98.20;;;;;;4981170;28;20497;-80
2023/05/09 05:15:58;;;;;;;1.50;1.00;;;16.30;98.20;;;;;;4979247;28;20476;-80
2023/05/09 05:18:34;;;;;;;1.50;1.00;;;16.30;98.20;;;;;;4983409;28;20520;-80
2023/05/09 05:23:57;;;;;;;1.50;0.90;;;16.40;98.20;;;;;;4979700;28;20509;-79
2023/05/09 05:26:38;;;;;;;1.70;1.50;;;16.50;98.20;;;;;;4975779;28;20602;-80
2023/05/09 05:29:05;;;;;;;1.50;0.90;;;16.50;98.20;;;;;;4984453;28;20735;-81
2023/05/09 05:31:32;;;;;;;1.50;0.90;;;16.60;98.20;;;;;;4976502;28;21037;-80
2023/05/09 05:34:02;;;;;;;1.50;1.00;;;16.60;98.20;;;;;;4980868;28;20628;-81
2023/05/09 05:36:55;;;;;;;1.50;1.00;;;16.60;98.20;;;;;;4980190;28;20485;-80
2023/05/09 05:39:47;;;;;;;1.50;1.00;;;16.70;98.20;;;;;;4991802;28;20461;-81
2023/05/09 05:42:16;;;;;;;1.50;0.93;;;16.80;98.20;;;;;;4973177;28;20493;-81
2023/05/09 05:44:47;;;;;;;1.50;1.03;;;16.80;98.20;;;;;;4994778;28;20476;-81
2023/05/09 05:47:21;;;;;;;1.70;1.40;;;16.90;98.20;;;;;;4984988;28;20483;-82
2023/05/09 05:49:48;;;;;;;1.50;1.00;;;16.90;98.20;;;;;;4996951;28;20468;-79
2023/05/09 05:52:16;;;;;;;1.50;1.00;;;16.90;98.20;;;;;;4974845;28;20500;-79
2023/05/09 05:54:58;;;;;;;1.50;0.97;;;17.00;98.20;;;;;;4990507;28;20949;-82
2023/05/09 05:57:29;;;;;;;2.07;1.87;;;17.20;98.20;;;;;;4981990;28;20485;-83
2023/05/09 06:00:09;;;;;;;1.60;1.30;;;17.30;98.20;;;;;;4996496;28;20468;-81
2023/05/09 06:02:46;;;;;;;1.93;1.20;;;17.50;98.20;;;;;;4984407;28;20496;-80
2023/05/09 06:12:06;;;;;;;1.50;1.00;;;18.10;98.20;;;;;;4909306;28;20492;-81
2023/05/09 06:14:33;;;;;;;1.53;0.97;;;18.30;98.20;;;;;;4990684;28;20604;-81
2023/05/09 06:17:13;;;;;;;1.50;0.90;;;18.40;98.20;;;;;;4992451;28;20607;-81
2023/05/09 06:19:39;;;;;;;2.23;2.03;;;18.60;98.20;;;;;;5004586;28;21030;-80
2023/05/09 06:22:07;;;;;;;1.53;1.00;;;18.70;98.20;;;;;;4979704;28;20536;-80
2023/05/09 06:24:34;;;;;;;1.50;0.90;;;18.90;98.20;;;;;;4988974;28;20491;-80
2023/05/09 06:27:01;;;;;;;1.50;0.97;;;19.10;98.20;;;;;;4979540;28;21162;-81
2023/05/09 06:29:29;;;;;;;1.50;1.00;;;19.30;98.20;;;;;;4992038;28;20525;-82
2023/05/09 06:31:56;;;;;;;2.00;1.33;;;19.40;98.20;;;;;;4980724;28;20478;-80
2023/05/09 06:34:23;;;;;;;1.50;0.90;;;19.40;98.20;;;;;;4991688;28;20485;-79
2023/05/09 06:36:52;;;;;;;1.50;0.90;;;19.50;98.20;;;;;;4984973;28;20513;-80
2023/05/09 06:39:31;;;;;;;1.60;1.20;;;19.50;98.20;;;;;;4996395;28;20507;-81
2023/05/09 06:41:58;;;;;;;1.60;0.90;;;19.60;98.20;;;;;;4985635;28;20986;-80
2023/05/09 06:44:25;;;;;;;1.50;0.90;;;19.70;98.20;;;;;;4992129;28;20980;-80
2023/05/09 06:46:53;;;;;;;1.70;1.20;;;19.70;98.20;;;;;;4983758;28;20488;-81
2023/05/09 06:49:23;;;;;;;1.50;0.90;;;19.80;98.20;;;;;;4996631;28;20946;-81
2023/05/09 06:51:50;;;;;;;1.60;1.10;;;19.90;98.20;;;;;;4985260;28;21013;-82
2023/05/09 06:54:17;;;;;;;1.50;0.90;;;20.10;98.20;;;;;;4993396;28;20504;-79
2023/05/09 06:57:41;;;;;;;1.53;1.00;;;20.20;98.20;;;;;;4981406;28;20577;-82
2023/05/09 07:00:09;;;;;;;1.50;0.90;;;20.30;98.20;;;;;;4983373;28;20468;-80
2023/05/09 07:02:43;;;;;;;1.50;0.90;;;20.40;98.20;;;;;;4977737;28;20489;-81
2023/05/09 07:05:10;;;;;;;1.50;0.90;;;20.30;98.20;;;;;;4990278;28;20483;-82
2023/05/09 07:07:41;;;;;;;1.60;1.20;;;20.30;98.20;;;;;;4972754;28;20561;-81
2023/05/09 07:10:13;;;;;;;1.50;0.90;;;20.30;98.20;;;;;;4992634;28;20462;-81
2023/05/09 07:12:41;;;;;;;1.50;0.90;;;20.40;98.20;;;;;;4979508;28;20519;-81
2023/05/09 07:15:11;;;;;;;1.50;0.90;;;20.30;98.20;;;;;;4992582;28;20511;-78
2023/05/09 07:17:43;;;;;;;1.50;0.90;;;20.30;98.20;;;;;;4973379;28;21075;-80
2023/05/09 07:20:10;;;;;;;1.50;1.00;;;20.30;98.20;;;;;;4994799;28;20484;-79
2023/05/09 07:22:37;;;;;;;1.50;0.90;;;20.40;98.20;;;;;;4979877;28;20489;-80
2023/05/09 07:25:08;;;;;;;1.50;0.90;;;20.40;98.20;;;;;;4993039;28;20506;-80
2023/05/09 07:27:35;;;;;;;1.50;0.90;;;20.40;98.20;;;;;;4975650;28;20481;-79
2023/05/09 07:30:01;;;;;;;1.50;0.90;;;20.40;98.20;;;;;;4992822;28;20894;-80
2023/05/09 07:32:28;;;;;;;1.50;1.00;;;20.40;98.20;;;;;;4967389;28;20573;-78
2023/05/09 07:35:00;;;;;;;1.50;0.97;;;20.40;98.20;;;;;;4987738;28;20902;-79
2023/05/09 07:37:27;;;;;;;1.50;0.90;;;20.40;98.20;;;;;;4977243;28;20481;-80
2023/05/09 07:39:57;;;;;;;1.50;0.90;;;20.20;98.20;;;;;;4992052;28;20457;-80
2023/05/09 07:42:23;;;;;;;1.50;0.90;;;20.20;98.20;;;;;;4976344;28;20497;-81
2023/05/09 07:44:50;;;;;;;3.50;3.20;;;20.30;98.20;;;;;;4986445;28;20580;-80
2023/05/09 07:47:17;;;;;;;1.50;0.90;;;20.30;98.20;;;;;;4972364;28;20576;-82
2023/05/09 07:49:46;;;;;;;1.50;0.90;;;20.20;98.20;;;;;;4988810;28;20530;-79
2023/05/09 07:52:16;;;;;;;1.50;1.00;;;20.20;98.20;;;;;;4974378;28;20560;-78
2023/05/09 07:54:43;;;;;;;1.50;0.90;;;20.30;98.20;;;;;;4949100;28;1064953;-82
2023/05/09 07:57:10;;;;;;;1.50;0.90;;;20.50;98.20;;;;;;4979080;28;20229;-80
2023/05/09 07:59:37;;;;;;;1.50;0.90;;;20.60;98.20;;;;;;4991595;28;20469;-82
2023/05/09 08:02:04;;;;;;;2.00;1.30;;;20.80;98.20;;;;;;4981971;28;20483;-81
2023/05/09 08:04:30;;;;;;;1.50;0.90;;;20.80;98.20;;;;;;4992187;28;20541;-80
2023/05/09 08:06:58;;;;;;;1.50;0.90;;;20.90;98.20;;;;;;4977261;28;20474;-80
2023/05/09 08:09:37;;;;;;;1.50;0.90;;;21.10;98.20;;;;;;4990524;28;20461;-81
2023/05/09 08:12:05;;;;;;;1.50;0.90;;;21.20;98.20;;;;;;4983802;28;20762;-81
2023/05/09 08:14:32;;;;;;;1.50;1.00;;;21.30;98.20;;;;;;4991007;28;20742;-79
2023/05/09 08:16:59;;;;;;;1.50;0.90;;;21.40;98.20;;;;;;4980027;28;20484;-81
2023/05/09 08:19:25;;;;;;;1.50;0.90;;;21.60;98.20;;;;;;4993524;28;20460;-80
2023/05/09 08:21:52;;;;;;;1.50;0.90;;;21.70;97.60;;;;;;4979930;28;20550;-82
2023/05/09 08:24:19;;;;;;;1.50;0.90;;;21.80;98.20;;;;;;4989782;28;20481;-79
2023/05/09 08:26:48;;;;;;;1.47;0.90;;;22.00;98.20;;;;;;4983082;28;20479;-79
2023/05/09 08:29:15;;;;;;;1.50;0.90;;;22.20;98.20;;;;;;4989819;28;20453;-81
2023/05/09 08:31:42;;;;;;;1.50;0.90;;;22.40;98.20;;;;;;4983466;28;20561;-79
2023/05/09 08:34:08;;;;;;;1.50;0.90;;;22.60;96.40;;;;;;4992340;28;20488;-79
2023/05/09 08:36:38;;;;;;;1.50;0.90;;;22.80;95.40;;;;;;4981515;28;20569;-80
2023/05/09 08:39:05;;;;;;;1.50;0.90;;;22.90;95.10;;;;;;4987357;28;20492;-81
2023/05/09 08:41:34;;;;;;;1.50;0.90;;;23.10;95.70;;;;;;4977058;28;21133;-80
2023/05/09 08:44:05;;;;;;;1.50;0.80;;;23.30;94.60;;;;;;4988609;28;20480;-80
2023/05/09 08:46:36;;;;;;;1.50;0.90;;;23.40;94.60;;;;;;4979561;28;20488;-80
2023/05/09 08:49:11;;;;;;;1.50;0.80;;;23.60;94.20;;;;;;4980000;28;20495;-86
2023/05/09 08:51:38;;;;;;;1.50;0.90;;;23.80;92.80;;;;;;4978451;28;20573;-79
2023/05/09 08:54:05;;;;;;;1.50;0.90;;;23.80;92.50;;;;;;4981762;28;20481;-79
2023/05/09 08:56:34;;;;;;;1.50;0.90;;;24.00;91.80;;;;;;4985155;28;20986;-79
2023/05/09 08:59:04;;;;;;;1.50;0.90;;;24.20;92.10;;;;;;4989331;28;20927;-81
2023/05/09 09:01:34;;;;;;;1.50;1.00;;;24.40;91.30;;;;;;4983194;28;20481;-79
2023/05/09 09:04:01;;;;;;;1.47;0.90;;;24.60;89.90;;;;;;4992136;28;20988;-80
2023/05/09 09:06:32;;;;;;;1.50;0.90;;;24.80;89.90;;;;;;4981278;28;20568;-79
2023/05/09 09:09:00;;;;;;;1.50;0.90;;;25.00;88.90;;;;;;4990790;28;20495;-80
2023/05/09 09:11:28;;;;;;;1.50;0.83;;;25.00;87.40;;;;;;4979153;28;20953;-79
2023/05/09 09:14:10;;;;;;;1.50;0.87;;;25.10;89.40;;;;;;4994427;28;20481;-79
2023/05/09 09:16:37;;;;;;;1.50;0.83;;;25.40;87.80;;;;;;4975419;28;20473;-80
2023/05/09 09:19:09;;;;;;;1.50;0.87;;;25.20;85.70;;;;;;4988691;28;20472;-80
2023/05/09 09:21:36;;;;;;;1.47;0.87;;;24.90;85.90;;;;;;4979515;28;20553;-80
2023/05/09 09:24:05;;;;;;;1.43;0.83;;;24.80;89.30;;;;;;4993674;28;20487;-80
2023/05/09 09:26:32;;;;;;;1.47;0.90;;;24.90;88.50;;;;;;4985977;28;20478;-81
2023/05/09 09:28:59;;;;;;;1.50;0.90;;;24.90;88.60;;;;;;4990305;28;20498;-79
2023/05/09 09:31:31;;;;;;;1.50;0.90;;;24.90;87.50;;;;;;4983931;28;20488;-79
2023/05/09 09:34:02;;;;;;;1.50;0.90;;;24.90;88.40;;;;;;4992138;28;20545;-80
2023/05/09 09:36:31;;;;;;;1.43;0.80;;;25.00;87.60;;;;;;4988648;28;20484;-81
2023/05/09 09:39:00;;;;;;;1.60;1.10;;;24.80;86.60;;;;;;5000170;28;20510;-81
2023/05/09 09:41:34;;;;;;;1.40;0.80;;;24.50;87.20;;;;;;4982123;28;20885;-83
2023/05/09 09:44:07;;;;;;;1.50;0.90;;;24.40;89.00;;;;;;4985230;28;20477;-81
2023/05/09 09:46:49;;;;;;;1.47;0.80;;;24.50;89.20;;;;;;4981754;28;20481;-80
2023/05/09 09:49:17;;;;;;;1.40;0.80;;;24.50;87.90;;;;;;4988012;28;20472;-80
2023/05/09 09:51:45;;;;;;;1.50;0.90;;;24.50;89.10;;;;;;4983790;28;20492;-82
2023/05/09 09:54:13;;;;;;;1.40;0.80;;;24.80;86.90;;;;;;4989670;28;20506;-79
2023/05/09 09:56:44;;;;;;;1.50;0.90;;;25.00;86.30;;;;;;4980381;28;20509;-81
2023/05/09 09:59:13;;;;;;;1.50;0.80;;;25.10;86.40;;;;;;4985632;28;20494;-79
2023/05/09 10:01:57;;;;;;;1.47;0.90;;;25.00;86.60;;;;;;4985480;28;20989;-81
2023/05/09 10:04:24;;;;;;;1.47;0.80;;;24.90;84.10;;;;;;4995663;28;20491;-78
2023/05/09 10:06:55;;;;;;;1.43;0.90;;;25.10;85.20;;;;;;4984976;28;20872;-78
2023/05/09 10:09:26;;;;;;;1.47;0.80;;;25.30;85.50;;;;;;4995756;28;20482;-77
2023/05/09 10:11:55;;;;;;;1.50;1.20;;;25.60;84.30;;;;;;4983945;28;20489;-81
2023/05/09 10:14:25;;;;;;;1.50;0.80;;;25.70;81.70;;;;;;4992659;28;20485;-80
2023/05/09 10:16:56;;;;;;;1.50;0.90;;;25.20;82.40;;;;;;4972624;28;20549;-81
2023/05/09 10:19:29;;;;;;;1.50;0.90;;;25.20;84.10;;;;;;4986682;28;20463;-79
2023/05/09 10:21:57;;;;;;;1.50;0.90;;;25.30;83.70;;;;;;4986468;28;20478;-79
2023/05/09 10:24:29;;;;;;;1.50;0.90;;;25.40;84.30;;;;;;4995489;28;20484;-80
2023/05/09 10:27:02;;;;;;;1.50;0.80;;;25.50;84.30;;;;;;4985822;28;20517;-82
2023/05/09 10:29:33;;;;;;;1.47;0.87;;;25.60;83.50;;;;;;4996543;28;20461;-79
2023/05/09 10:32:32;;;;;;;1.43;0.80;;;25.20;83.60;;;;;;4988811;28;20507;-81
2023/05/09 10:35:05;;;;;;;1.43;0.90;;;24.90;83.90;;;;;;4993240;28;20641;-82
2023/05/09 10:37:32;;;;;;;1.50;0.90;;;24.70;85.80;;;;;;4983411;28;20562;-79
2023/05/09 10:40:00;;;;;;;1.50;0.90;;;24.30;85.90;;;;;;5003777;28;20552;-80
2023/05/09 10:42:28;;;;;;;1.40;0.90;;;24.40;86.70;;;;;;4987797;28;20508;-79
2023/05/09 10:44:56;;;;;;;1.50;0.90;;;24.50;87.00;;;;;;4999509;28;20480;-82
2023/05/09 10:47:25;;;;;;;1.47;0.83;;;24.60;85.70;;;;;;4987024;28;20485;-80
2023/05/09 10:49:52;;;;;;;1.47;0.90;;;24.30;85.40;;;;;;5006121;28;20961;-78
2023/05/09 10:52:23;;;;;;;1.50;0.90;;;24.20;86.60;;;;;;4982803;28;20498;-77
2023/05/09 10:54:59;;;;;;;1.50;0.90;;;24.10;86.60;;;;;;4999137;28;20918;-78
2023/05/09 10:57:28;;;;;;;1.47;0.90;;;24.20;86.50;;;;;;4979094;28;20545;-80
2023/05/09 10:59:57;;;;;;;1.47;0.90;;;24.20;86.00;;;;;;4990552;28;20471;-78
2023/05/09 11:02:28;;;;;;;1.50;1.00;;;24.30;86.70;;;;;;4978085;28;20696;-78
2023/05/09 11:05:13;;;;;;;1.47;0.80;;;24.50;86.40;;;;;;4992076;28;20515;-78
2023/05/09 11:07:42;;;;;;;1.47;0.80;;;24.90;86.10;;;;;;4981783;28;21251;-78
2023/05/09 11:10:10;;;;;;;1.50;0.90;;;25.40;84.60;;;;;;5000923;28;20551;-79
2023/05/09 11:12:55;;;;;;;1.40;0.80;;;25.20;83.60;;;;;;4983940;28;20565;-77
2023/05/09 11:15:22;;;;;;;1.50;0.80;;;25.20;83.20;;;;;;4997440;28;20549;-79
2023/05/09 11:18:04;;;;;;;1.50;0.90;;;25.10;83.20;;;;;;4983747;28;20476;-78
2023/05/09 11:20:34;;;;;;;1.47;0.90;;;24.90;84.40;;;;;;4989144;28;20503;-79
2023/05/09 11:23:04;;;;;;;1.40;0.90;;;24.90;83.20;;;;;;4982973;28;20575;-79
2023/05/09 11:25:31;;;;;;;1.47;0.90;;;24.80;84.30;;;;;;4993898;28;20512;-79
2023/05/09 11:28:00;;;;;;;1.43;0.80;;;24.70;84.80;;;;;;4970075;28;20512;-79
2023/05/09 11:30:38;;;;;;;1.47;0.80;;;24.80;86.60;;;;;;4992906;28;20465;-80
2023/05/09 11:33:05;;;;;;;1.50;0.90;;;24.90;85.00;;;;;;4980737;28;20480;-78
2023/05/09 11:35:33;;;;;;;1.50;0.80;;;25.00;84.90;;;;;;4991508;28;20589;-79
2023/05/09 11:38:20;;;;;;;1.50;1.10;;;25.00;86.00;;;;;;4977733;28;21022;-78
2023/05/09 11:40:47;;;;;;;1.40;0.80;;;25.20;84.70;;;;;;4989484;28;20448;-79
2023/05/09 11:43:14;;;;;;;1.47;0.80;;;25.10;84.20;;;;;;4989323;28;20461;-77
2023/05/09 11:45:41;;;;;;;1.40;0.90;;;25.10;84.30;;;;;;5002736;28;20490;-78
2023/05/09 11:48:10;;;;;;;1.47;0.80;;;25.10;85.30;;;;;;4974035;28;20986;-80
2023/05/09 11:50:37;;;;;;;1.47;0.83;;;25.10;84.80;;;;;;4990820;28;20468;-78
2023/05/09 11:53:12;;;;;;;1.47;0.90;;;25.10;84.80;;;;;;4980176;28;20484;-80
2023/05/09 11:55:44;;;;;;;1.40;0.87;;;25.10;85.10;;;;;;4997011;28;20516;-79
2023/05/09 11:58:11;;;;;;;1.47;0.90;;;25.10;85.50;;;;;;4976730;28;20508;-80
2023/05/09 12:00:44;;;;;;;1.40;0.87;;;25.00;84.40;;;;;;4995195;28;20577;-80
2023/05/09 12:03:12;;;;;;;1.50;0.90;;;24.80;84.40;;;;;;4969610;28;20481;-79
2023/05/09 12:05:39;;;;;;;1.47;0.80;;;24.80;85.80;;;;;;4998403;28;20513;-81
2023/05/09 12:08:06;;;;;;;1.40;0.83;;;24.90;86.00;;;;;;4979084;28;20545;-81
2023/05/09 12:10:38;;;;;;;1.40;0.87;;;25.00;86.00;;;;;;4994068;28;20493;-79
2023/05/09 12:13:05;;;;;;;1.40;0.80;;;24.70;84.90;;;;;;4975145;28;20492;-80
2023/05/09 12:15:36;;;;;;;1.47;0.80;;;24.60;84.60;;;;;;4993272;28;20587;-82
2023/05/09 12:18:05;;;;;;;1.43;0.87;;;24.80;86.30;;;;;;4972575;28;20550;-80
2023/05/09 12:20:42;;;;;;;1.50;0.90;;;24.80;85.10;;;;;;4993007;28;20463;-82
2023/05/09 12:23:10;;;;;;;1.50;0.90;;;24.60;84.00;;;;;;4980689;28;20488;-79
2023/05/09 12:25:38;;;;;;;1.50;0.80;;;24.50;84.30;;;;;;4995975;28;21365;-78
2023/05/09 12:28:06;;;;;;;1.43;0.80;;;24.50;85.70;;;;;;4976583;28;20559;-79
2023/05/09 12:30:33;;;;;;;1.43;0.80;;;24.80;87.00;;;;;;4991030;28;20843;-78
2023/05/09 12:33:00;;;;;;;1.43;0.90;;;25.20;84.40;;;;;;4976590;28;20556;-78
2023/05/09 12:35:26;;;;;;;1.43;0.80;;;25.40;84.10;;;;;;4985415;28;20804;-80
2023/05/09 12:37:58;;;;;;;1.50;0.90;;;25.50;82.50;;;;;;4979699;28;21020;-79
2023/05/09 12:40:25;;;;;;;1.40;0.80;;;25.60;82.60;;;;;;4991940;28;20461;-79
2023/05/09 12:42:58;;;;;;;1.47;0.90;;;25.50;83.20;;;;;;4979673;28;20484;-80
2023/05/09 12:45:25;;;;;;;1.47;0.90;;;25.60;83.70;;;;;;4989294;28;20479;-80
2023/05/09 12:47:53;;;;;;;1.47;0.90;;;25.80;83.60;;;;;;4982983;28;20476;-78
2023/05/09 12:50:20;;;;;;;1.40;0.90;;;25.90;82.00;;;;;;4995308;28;20456;-78
2023/05/09 12:52:51;;;;;;;1.50;1.00;;;26.00;82.60;;;;;;4977381;28;20519;-79
2023/05/09 12:55:20;;;;;;;1.40;0.80;;;25.90;81.70;;;;;;4985878;28;20498;-77
2023/05/09 12:57:59;;;;;;;1.50;0.90;;;25.80;82.30;;;;;;4974426;28;20928;-78
2023/05/09 13:00:26;;;;;;;1.40;0.87;;;25.70;82.80;;;;;;4986067;28;20519;-78
2023/05/09 13:02:53;;;;;;;1.40;0.80;;;25.60;83.40;;;;;;4976041;28;20500;-79
2023/05/09 13:05:21;;;;;;;1.40;0.90;;;25.50;82.20;;;;;;4989573;28;20481;-78
2023/05/09 13:07:56;;;;;;;1.43;0.90;;;25.40;83.40;;;;;;4979301;28;20483;-77
2023/05/09 13:10:26;;;;;;;1.40;0.80;;;25.40;83.10;;;;;;4983571;28;20463;-77
2023/05/09 13:12:53;;;;;;;1.70;1.17;;;25.40;83.50;;;;;;4975983;28;21035;-79
2023/05/09 13:15:22;;;;;;;1.43;0.80;;;25.40;82.30;;;;;;4989035;28;20974;-77
2023/05/09 13:17:53;;;;;;;1.40;0.87;;;25.30;83.00;;;;;;4976980;28;20473;-80
2023/05/09 13:20:20;;;;;;;1.50;0.90;;;25.10;83.50;;;;;;4990134;28;20472;-79